createdAt,value
2023-04-22T00:01:25.791Z,99906.97
2023-04-22T00:03:52.920Z,99902.91
2023-04-22T00:06:20.117Z,99898.19
2023-04-22T00:08:46.876Z,99908.09
2023-04-22T00:11:16.465Z,99899.53
2023-04-22T00:13:43.060Z,99898.78
2023-04-22T00:16:09.797Z,99900.69
2023-04-22T00:18:36.447Z,99902.69
2023-04-22T00:21:04.273Z,99895.59
2023-04-22T00:23:30.903Z,99898.38
2023-04-22T00:25:57.616Z,99906.97
2023-04-22T00:28:24.389Z,99903.53
2023-04-22T00:30:51.032Z,99904.66
2023-04-22T00:33:17.894Z,99894.53
2023-04-22T00:35:46.387Z,99898.47
2023-04-22T00:38:13.181Z,99902.28
2023-04-22T00:40:40.074Z,99899.81
2023-04-22T00:43:09.005Z,99894.66
2023-04-22T00:45:37.537Z,99891.34
2023-04-22T00:48:04.622Z,99893.38
2023-04-22T00:50:31.603Z,99898.00
2023-04-22T00:52:58.219Z,99895.47
2023-04-22T00:55:25.277Z,99883.06
2023-04-22T00:57:52.467Z,99901.81
2023-04-22T01:00:20.071Z,99893.19
2023-04-22T01:02:48.119Z,99895.75
2023-04-22T01:05:15.394Z,99897.88
2023-04-22T01:07:42.169Z,99897.09
2023-04-22T01:10:09.286Z,99904.88
2023-04-22T01:12:35.935Z,99911.06
2023-04-22T01:15:04.653Z,99910.53
2023-04-22T01:17:32.202Z,99908.19
2023-04-22T01:19:59.022Z,99908.97
2023-04-22T01:22:27.095Z,99902.44
2023-04-22T01:24:54.491Z,99913.69
2023-04-22T01:27:21.297Z,99911.69
2023-04-22T01:29:48.452Z,99909.84
2023-04-22T01:32:15.543Z,99920.22
2023-04-22T01:34:42.341Z,99918.47
2023-04-22T01:37:09.225Z,99917.34
2023-04-22T01:39:36.061Z,99920.78
2023-04-22T01:42:03.273Z,99918.81
2023-04-22T01:44:29.986Z,99924.84
2023-04-22T01:46:56.703Z,99922.84
2023-04-22T01:49:23.300Z,99921.25
2023-04-22T01:51:50.005Z,99916.03
2023-04-22T01:54:16.637Z,99921.69
2023-04-22T01:56:50.289Z,99914.50
2023-04-22T01:59:17.096Z,99913.53
2023-04-22T02:01:43.894Z,99921.78
2023-04-22T02:04:10.631Z,99914.31
2023-04-22T02:06:37.333Z,99914.06
2023-04-22T02:09:04.069Z,99909.88
2023-04-22T02:11:30.938Z,99913.84
2023-04-22T02:13:57.966Z,99912.06
2023-04-22T02:16:24.706Z,99918.97
2023-04-22T02:18:51.372Z,99911.44
2023-04-22T02:21:17.996Z,99912.94
2023-04-22T02:23:44.745Z,99912.47
2023-04-22T02:26:11.392Z,99912.25
2023-04-22T02:28:38.140Z,99905.94
2023-04-22T02:31:04.817Z,99905.75
2023-04-22T02:33:31.731Z,99914.91
2023-04-22T02:35:58.426Z,99908.97
2023-04-22T02:38:25.123Z,99913.25
2023-04-22T02:40:51.777Z,99906.59
2023-04-22T02:43:18.424Z,99908.91
2023-04-22T02:45:45.084Z,99908.34
2023-04-22T02:48:11.844Z,99909.84
2023-04-22T02:50:38.578Z,99904.09
2023-04-22T02:53:05.245Z,99905.88
2023-04-22T02:55:31.961Z,99903.25
2023-04-22T02:57:58.598Z,99907.06
2023-04-22T03:00:25.323Z,99903.63
2023-04-22T03:02:52.185Z,99911.78
2023-04-22T03:05:19.123Z,99907.53
2023-04-22T03:07:45.775Z,99907.75
2023-04-22T03:10:12.417Z,99907.06
2023-04-22T03:12:39.210Z,99911.56
2023-04-22T03:15:06.603Z,99914.28
2023-04-22T03:17:33.364Z,99910.50
2023-04-22T03:20:00.249Z,99915.91
2023-04-22T03:22:26.977Z,99909.72
2023-04-22T03:24:53.635Z,99915.09
2023-04-22T03:27:20.463Z,99902.75
2023-04-22T03:29:47.074Z,99909.75
2023-04-22T03:32:13.913Z,99915.06
2023-04-22T03:34:40.609Z,99912.47
2023-04-22T03:37:07.217Z,99917.44
2023-04-22T03:39:33.933Z,99922.66
2023-04-22T03:42:00.669Z,99918.19
2023-04-22T03:44:27.392Z,99919.25
2023-04-22T03:46:54.134Z,99922.31
2023-04-22T03:49:21.334Z,99924.31
2023-04-22T03:51:47.950Z,99920.66
2023-04-22T03:54:14.696Z,99922.44
2023-04-22T03:56:41.438Z,99931.31
2023-04-22T03:59:08.296Z,99930.63
2023-04-22T04:01:34.911Z,99925.75
2023-04-22T04:04:01.853Z,99930.25
2023-04-22T04:06:28.755Z,99931.06
2023-04-22T04:08:55.354Z,99926.28
2023-04-22T04:11:22.016Z,99930.81
2023-04-22T04:13:48.724Z,99933.69
2023-04-22T04:16:15.493Z,99936.84
2023-04-22T04:18:42.333Z,99941.25
2023-04-22T04:21:09.015Z,99931.28
2023-04-22T04:23:35.752Z,99938.72
2023-04-22T04:26:02.429Z,99942.72
2023-04-22T04:28:29.456Z,99945.88
2023-04-22T04:30:56.169Z,99951.16
2023-04-22T04:33:22.822Z,99954.94
2023-04-22T04:35:49.564Z,99954.53
2023-04-22T04:38:16.209Z,99952.03
2023-04-22T04:40:42.796Z,99954.53
2023-04-22T04:43:09.658Z,99956.41
2023-04-22T04:45:36.720Z,99964.50
2023-04-22T04:48:03.419Z,99962.38
2023-04-22T04:50:30.082Z,99967.91
2023-04-22T04:52:56.727Z,99969.69
2023-04-22T04:55:23.393Z,99961.31
2023-04-22T04:57:50.197Z,99964.09
2023-04-22T05:00:17.071Z,99962.31
2023-04-22T05:02:43.914Z,99963.19
2023-04-22T05:05:10.834Z,99961.41
2023-04-22T05:07:37.567Z,99965.97
2023-04-22T05:10:04.682Z,99970.19
2023-04-22T05:12:31.332Z,99966.56
2023-04-22T05:14:58.239Z,99974.03
2023-04-22T05:17:25.312Z,99971.75
2023-04-22T05:19:51.972Z,99966.78
2023-04-22T05:22:18.786Z,99970.19
2023-04-22T05:24:45.437Z,99969.28
2023-04-22T05:27:12.367Z,99967.59
2023-04-22T05:29:41.426Z,99979.91
2023-04-22T05:32:08.560Z,99976.97
2023-04-22T05:34:35.986Z,99975.34
2023-04-22T05:37:03.845Z,99977.00
2023-04-22T05:39:30.590Z,99974.44
2023-04-22T05:41:57.472Z,99980.00
2023-04-22T05:44:24.130Z,99981.44
2023-04-22T05:46:50.817Z,99977.91
2023-04-22T05:49:17.502Z,99977.78
2023-04-22T05:51:44.193Z,99988.06
2023-04-22T05:54:10.870Z,99986.22
2023-04-22T05:56:37.515Z,99979.41
2023-04-22T05:59:04.261Z,99987.09
2023-04-22T06:01:31.177Z,99983.16
2023-04-22T06:03:58.120Z,99987.22
2023-04-22T06:06:24.915Z,99979.66
2023-04-22T06:08:51.593Z,99986.75
2023-04-22T06:11:18.527Z,99991.53
2023-04-22T06:13:45.348Z,99992.81
2023-04-22T06:16:12.166Z,99993.19
2023-04-22T06:18:38.854Z,100000.03
2023-04-22T06:21:05.685Z,99990.66
2023-04-22T06:23:32.436Z,99989.41
2023-04-22T06:25:59.123Z,99990.50
2023-04-22T06:28:25.726Z,99998.50
2023-04-22T06:30:52.423Z,99997.16
2023-04-22T06:33:19.112Z,99992.94
2023-04-22T06:35:45.864Z,99994.09
2023-04-22T06:38:12.527Z,99990.09
2023-04-22T06:40:39.255Z,99989.34
2023-04-22T06:43:05.900Z,99988.06
2023-04-22T06:45:32.582Z,99990.63
2023-04-22T06:47:59.365Z,99991.81
2023-04-22T06:50:26.169Z,99996.63
2023-04-22T06:52:55.024Z,99994.50
2023-04-22T06:55:21.851Z,99997.78
2023-04-22T06:57:48.645Z,99987.66
2023-04-22T07:00:15.778Z,99994.00
2023-04-22T07:02:42.608Z,99992.31
2023-04-22T07:05:09.485Z,99999.19
2023-04-22T07:07:36.231Z,99997.16
2023-04-22T07:10:02.929Z,100000.75
2023-04-22T07:12:29.855Z,99992.44
2023-04-22T07:14:56.572Z,99998.72
2023-04-22T07:17:23.215Z,99998.22
2023-04-22T07:19:49.859Z,99995.94
2023-04-22T07:22:16.502Z,100001.25
2023-04-22T07:24:43.349Z,100000.19
2023-04-22T07:27:10.138Z,99998.41
2023-04-22T07:29:37.148Z,100001.78
2023-04-22T07:32:04.030Z,100001.63
2023-04-22T07:34:30.736Z,100002.72
2023-04-22T07:36:57.519Z,99998.19
2023-04-22T07:39:24.164Z,100004.66
2023-04-22T07:41:50.985Z,100001.78
2023-04-22T07:44:17.669Z,100005.00
2023-04-22T07:46:44.369Z,100002.38
2023-04-22T07:49:10.994Z,100000.97
2023-04-22T07:51:37.714Z,100001.59
2023-04-22T07:54:04.373Z,99996.00
2023-04-22T07:56:31.093Z,100000.09
2023-04-22T07:58:57.705Z,100000.94
2023-04-22T08:01:24.432Z,100001.19
2023-04-22T08:03:51.490Z,99997.28
2023-04-22T08:06:18.496Z,99993.66
2023-04-22T08:08:45.154Z,99993.91
2023-04-22T08:11:11.833Z,99998.84
2023-04-22T08:13:38.500Z,100003.53
2023-04-22T08:16:05.662Z,99998.84
2023-04-22T08:18:32.524Z,99994.09
2023-04-22T08:20:59.247Z,99998.84
2023-04-22T08:23:25.986Z,100002.59
2023-04-22T08:25:52.706Z,100002.97
2023-04-22T08:28:19.420Z,100002.94
2023-04-22T08:30:46.097Z,100002.28
2023-04-22T08:33:12.733Z,100000.69
2023-04-22T08:35:40.586Z,100006.22
2023-04-22T08:38:07.181Z,100005.63
2023-04-22T08:40:35.539Z,99999.97
2023-04-22T08:43:02.756Z,100001.72
2023-04-22T08:45:30.117Z,100006.03
2023-04-22T08:47:57.469Z,100005.91
2023-04-22T08:50:24.110Z,100005.06
2023-04-22T08:52:50.798Z,100004.66
2023-04-22T08:55:17.589Z,99995.81
2023-04-22T08:57:45.050Z,100001.03
2023-04-22T09:00:12.096Z,100004.81
2023-04-22T09:02:42.069Z,99990.03
2023-04-22T09:05:10.511Z,99998.06
2023-04-22T09:07:38.555Z,99999.84
2023-04-22T09:10:05.827Z,100001.06
2023-04-22T09:12:32.485Z,100007.53
2023-04-22T09:14:59.327Z,100000.13
2023-04-22T09:17:33.966Z,100004.94
2023-04-22T09:20:03.164Z,99994.44
2023-04-22T09:22:38.890Z,100003.66
2023-04-22T09:25:05.976Z,100000.22
2023-04-22T09:27:32.635Z,99992.69
2023-04-22T09:29:59.248Z,100000.84
2023-04-22T09:34:54.455Z,99998.72
2023-04-22T09:37:33.256Z,99992.75
2023-04-22T09:40:09.603Z,99987.88
2023-04-22T09:42:51.562Z,99995.59
2023-04-22T09:45:29.352Z,99991.69
2023-04-22T09:47:57.430Z,99979.16
2023-04-22T09:50:28.951Z,99979.06
2023-04-22T09:53:16.786Z,99977.78
2023-04-22T09:55:46.640Z,99970.59
2023-04-22T09:58:15.821Z,99969.66
2023-04-22T10:00:45.299Z,99964.06
2023-04-22T10:03:12.008Z,99965.00
2023-04-22T10:05:38.938Z,99960.81
2023-04-22T10:08:06.924Z,99969.78
2023-04-22T10:10:34.554Z,99965.38
2023-04-22T10:13:02.083Z,99950.41
2023-04-22T10:15:35.065Z,99955.19
2023-04-22T10:18:03.533Z,99951.53
2023-04-22T10:20:32.057Z,99952.09
2023-04-22T10:22:58.650Z,99946.53
2023-04-22T10:25:26.352Z,99959.84
2023-04-22T10:28:03.799Z,99944.78
2023-04-22T10:30:33.083Z,99951.88
2023-04-22T10:33:21.642Z,99947.19
2023-04-22T10:36:06.567Z,99937.91
2023-04-22T10:38:38.993Z,99940.28
2023-04-22T10:41:05.704Z,99938.22
2023-04-22T10:43:47.857Z,99939.47
2023-04-22T10:46:32.931Z,99940.94
2023-04-22T10:49:06.877Z,99945.16
2023-04-22T10:51:43.708Z,99944.59
2023-04-22T10:54:31.596Z,99943.56
2023-04-22T10:57:09.648Z,99938.09
2023-04-22T10:59:44.140Z,99936.66
2023-04-22T11:02:13.881Z,99938.59
2023-04-22T11:04:40.797Z,99939.00
2023-04-22T11:07:19.711Z,99933.38
2023-04-22T11:09:50.764Z,99941.25
2023-04-22T11:12:37.692Z,99935.81
2023-04-22T11:15:14.878Z,99932.78
2023-04-22T11:17:46.818Z,99936.19
2023-04-22T11:20:15.284Z,99928.19
2023-04-22T11:22:43.863Z,99928.91
2023-04-22T11:25:10.985Z,99932.72
2023-04-22T11:27:38.900Z,99923.91
2023-04-22T11:30:13.470Z,99922.59
2023-04-22T11:32:45.468Z,99923.88
2023-04-22T11:35:24.049Z,99919.06
2023-04-22T11:38:04.992Z,99929.56
2023-04-22T11:40:39.413Z,99921.41
2023-04-22T11:43:09.064Z,99921.97
2023-04-22T11:45:37.356Z,99929.09
2023-04-22T11:48:07.373Z,99929.66
2023-04-22T11:50:36.269Z,99920.16
2023-04-22T11:53:05.453Z,99923.25
2023-04-22T11:55:34.674Z,99924.69
2023-04-22T11:58:07.879Z,99928.59
2023-04-22T12:00:36.370Z,99912.59
2023-04-22T12:03:06.734Z,99910.34
2023-04-22T12:05:39.007Z,99912.75
2023-04-22T12:08:22.978Z,99910.97
2023-04-22T12:10:55.556Z,99910.19
2023-04-22T12:13:23.732Z,99907.56
2023-04-22T12:15:55.290Z,99903.69
2023-04-22T12:18:52.007Z,99899.44
2023-04-22T12:21:26.005Z,99900.09
2023-04-22T12:23:55.086Z,99901.03
2023-04-22T12:26:26.694Z,99904.72
2023-04-22T12:28:56.098Z,99899.22
2023-04-22T12:31:23.007Z,99899.56
2023-04-22T12:33:50.202Z,99898.81
2023-04-22T12:36:18.621Z,99900.16
2023-04-22T12:38:45.245Z,99904.38
2023-04-22T12:41:11.881Z,99896.66
2023-04-22T12:43:38.753Z,99899.91
2023-04-22T12:46:07.303Z,99895.22
2023-04-22T12:48:35.235Z,99893.13
2023-04-22T12:51:01.897Z,99897.78
2023-04-22T12:53:28.839Z,99883.16
2023-04-22T12:55:56.043Z,99885.41
2023-04-22T12:58:23.100Z,99886.31
2023-04-22T13:00:49.749Z,99881.78
2023-04-22T13:03:16.605Z,99883.75
2023-04-22T13:05:45.052Z,99881.91
2023-04-22T13:08:11.868Z,99880.16
2023-04-22T13:10:38.521Z,99878.94
2023-04-22T13:15:35.028Z,99867.84
2023-04-22T13:18:02.506Z,99871.97
2023-04-22T13:20:29.341Z,99876.59
2023-04-22T13:22:56.044Z,99868.22
2023-04-22T13:25:22.806Z,99867.81
2023-04-22T13:27:49.497Z,99870.38
2023-04-22T13:30:16.354Z,99865.31
2023-04-22T13:32:43.229Z,99862.00
2023-04-22T13:35:09.857Z,99867.25
2023-04-22T13:37:36.749Z,99861.44
2023-04-22T13:40:04.398Z,99855.81
2023-04-22T13:42:31.081Z,99850.03
2023-04-22T13:44:57.778Z,99853.97
2023-04-22T13:47:24.504Z,99854.44
2023-04-22T13:49:51.196Z,99849.06
2023-04-22T13:52:17.899Z,99847.63
2023-04-22T13:54:44.617Z,99844.06
2023-04-22T13:57:11.268Z,99846.56
2023-04-22T13:59:37.903Z,99850.94
2023-04-22T14:02:04.672Z,99848.38
2023-04-22T14:04:31.392Z,99841.69
2023-04-22T14:06:58.190Z,99840.84
2023-04-22T14:09:24.815Z,99838.03
2023-04-22T14:11:51.708Z,99844.00
2023-04-22T14:14:18.370Z,99843.94
2023-04-22T14:16:45.074Z,99847.31
2023-04-22T14:19:11.813Z,99849.94
2023-04-22T14:21:38.446Z,99842.72
2023-04-22T14:24:05.166Z,99844.63
2023-04-22T14:26:31.930Z,99850.19
2023-04-22T14:28:58.886Z,99845.91
2023-04-22T14:31:26.175Z,99837.38
2023-04-22T14:33:52.845Z,99843.88
2023-04-22T14:36:19.445Z,99840.94
2023-04-22T14:38:46.143Z,99835.13
2023-04-22T14:41:13.039Z,99844.22
2023-04-22T14:43:39.774Z,99837.97
2023-04-22T14:46:06.687Z,99834.75
2023-04-22T14:48:33.353Z,99840.69
2023-04-22T14:50:59.960Z,99839.38
2023-04-22T14:53:26.809Z,99840.59
2023-04-22T14:55:53.680Z,99841.78
2023-04-22T14:58:20.339Z,99834.69
2023-04-22T15:00:47.063Z,99835.53
2023-04-22T15:03:14.019Z,99834.69
2023-04-22T15:05:40.887Z,99837.75
2023-04-22T15:08:07.494Z,99832.97
2023-04-22T15:10:34.130Z,99833.25
2023-04-22T15:13:00.849Z,99842.31
2023-04-22T15:15:27.573Z,99833.66
2023-04-22T15:17:54.348Z,99834.69
2023-04-22T15:20:21.020Z,99840.50
2023-04-22T15:22:49.161Z,99834.38
2023-04-22T15:25:18.016Z,99836.25
2023-04-22T15:27:45.035Z,99835.81
2023-04-22T15:30:11.779Z,99835.91
2023-04-22T15:32:38.661Z,99833.75
2023-04-22T15:35:07.348Z,99832.47
2023-04-22T15:37:34.194Z,99837.66
2023-04-22T15:40:00.807Z,99832.69
2023-04-22T15:42:27.682Z,99839.28
2023-04-22T15:44:54.312Z,99831.72
2023-04-22T15:47:21.205Z,99829.00
2023-04-22T15:49:47.933Z,99838.09
2023-04-22T15:52:14.579Z,99831.31
2023-04-22T15:54:41.278Z,99840.56
2023-04-22T15:57:07.885Z,99831.31
2023-04-22T15:59:34.506Z,99830.56
2023-04-22T16:02:01.483Z,99839.56
2023-04-22T16:04:28.708Z,99830.81
2023-04-22T16:06:55.430Z,99834.00
2023-04-22T16:09:22.017Z,99824.06
2023-04-22T16:11:48.688Z,99822.75
2023-04-22T16:14:15.358Z,99822.44
2023-04-22T16:16:43.577Z,99828.44
2023-04-22T16:19:10.267Z,99827.22
2023-04-22T16:21:37.225Z,99821.81
2023-04-22T16:24:03.922Z,99815.16
2023-04-22T16:26:30.600Z,99821.84
2023-04-22T16:28:57.258Z,99821.44
2023-04-22T16:31:23.961Z,99813.31
2023-04-22T16:33:53.574Z,99820.00
2023-04-22T16:36:20.207Z,99815.28
2023-04-22T16:38:46.950Z,99811.53
2023-04-22T16:41:13.626Z,99822.44
2023-04-22T16:43:41.191Z,99817.19
2023-04-22T16:46:08.094Z,99815.47
2023-04-22T16:48:34.779Z,99818.38
2023-04-22T16:51:01.404Z,99823.28
2023-04-22T16:53:28.045Z,99813.88
2023-04-22T16:55:54.710Z,99813.66
2023-04-22T16:58:21.277Z,99810.88
2023-04-22T17:00:47.957Z,99809.47
2023-04-22T17:03:14.826Z,99814.81
2023-04-22T17:05:41.577Z,99817.59
2023-04-22T17:08:08.306Z,99809.91
2023-04-22T17:10:35.061Z,99810.69
2023-04-22T17:13:01.661Z,99810.19
2023-04-22T17:15:28.236Z,99806.56
2023-04-22T17:17:54.920Z,99815.94
2023-04-22T17:20:21.617Z,99812.94
2023-04-22T17:22:48.231Z,99809.09
2023-04-22T17:25:14.805Z,99811.09
2023-04-22T17:27:41.478Z,99810.19
2023-04-22T17:30:08.677Z,99809.25
2023-04-22T17:32:35.379Z,99802.22
2023-04-22T17:35:02.060Z,99812.00
2023-04-22T17:37:28.719Z,99809.19
2023-04-22T17:39:55.489Z,99806.97
2023-04-22T17:42:23.742Z,99810.56
2023-04-22T17:44:53.977Z,99820.63
2023-04-22T17:47:20.569Z,99819.44
2023-04-22T17:49:47.191Z,99822.16
2023-04-22T17:52:13.876Z,99822.78
2023-04-22T17:54:40.626Z,99830.25
2023-04-22T17:57:07.217Z,99821.34
2023-04-22T17:59:33.952Z,99824.44
2023-04-22T18:02:01.623Z,99832.56
2023-04-22T18:04:28.473Z,99831.81
2023-04-22T18:06:55.083Z,99837.50
2023-04-22T18:09:21.961Z,99839.06
2023-04-22T18:11:48.857Z,99845.03
2023-04-22T18:14:15.635Z,99839.56
2023-04-22T18:16:42.281Z,99846.97
2023-04-22T18:19:08.907Z,99849.03
2023-04-22T18:21:36.854Z,99858.19
2023-04-22T18:24:05.011Z,99855.81
2023-04-22T18:26:31.683Z,99856.31
2023-04-22T18:28:58.305Z,99857.34
2023-04-22T18:31:25.426Z,99858.91
2023-04-22T18:33:52.061Z,99858.44
2023-04-22T18:36:18.728Z,99861.63
2023-04-22T18:38:45.337Z,99858.38
2023-04-22T18:41:11.970Z,99865.38
2023-04-22T18:43:38.620Z,99864.69
2023-04-22T18:46:05.383Z,99864.97
2023-04-22T18:48:32.117Z,99868.38
2023-04-22T18:50:58.735Z,99873.16
2023-04-22T18:53:25.393Z,99869.06
2023-04-22T18:55:52.090Z,99876.34
2023-04-22T18:58:18.728Z,99873.09
2023-04-22T19:00:45.475Z,99875.88
2023-04-22T19:03:12.317Z,99868.66
2023-04-22T19:05:39.136Z,99875.72
2023-04-22T19:08:05.767Z,99870.97
2023-04-22T19:10:32.715Z,99876.38
2023-04-22T19:12:59.339Z,99871.91
2023-04-22T19:15:26.088Z,99869.81
2023-04-22T19:17:52.739Z,99874.94
2023-04-22T19:20:19.519Z,99868.22
2023-04-22T19:22:46.273Z,99877.16
2023-04-22T19:25:12.942Z,99871.94
2023-04-22T19:27:39.553Z,99867.94
2023-04-22T19:30:06.858Z,99872.63
2023-04-22T19:32:33.663Z,99869.63
2023-04-22T19:35:03.186Z,99871.78
2023-04-22T19:37:30.638Z,99871.84
2023-04-22T19:39:57.339Z,99869.84
2023-04-22T19:42:23.941Z,99873.81
2023-04-22T19:44:50.897Z,99869.69
2023-04-22T19:47:17.842Z,99880.31
2023-04-22T19:49:44.759Z,99876.44
2023-04-22T19:52:11.602Z,99874.00
2023-04-22T19:54:40.180Z,99869.38
2023-04-22T19:57:07.547Z,99867.66
2023-04-22T19:59:34.560Z,99872.72
2023-04-22T20:02:01.462Z,99874.47
2023-04-22T20:04:28.608Z,99871.94
2023-04-22T20:06:55.422Z,99881.34
2023-04-22T20:09:22.234Z,99876.97
2023-04-22T20:11:48.954Z,99870.03
2023-04-22T20:14:16.318Z,99872.88
2023-04-22T20:16:43.275Z,99869.44
2023-04-22T20:19:10.056Z,99870.63
2023-04-22T20:21:36.899Z,99870.56
2023-04-22T20:24:04.142Z,99863.47
2023-04-22T20:26:32.432Z,99861.91
2023-04-22T20:29:00.854Z,99861.91
2023-04-22T20:31:27.701Z,99867.81
2023-04-22T20:33:54.481Z,99865.09
2023-04-22T20:36:21.181Z,99863.31
2023-04-22T20:38:49.759Z,99855.94
2023-04-22T20:41:17.177Z,99863.75
2023-04-22T20:43:43.932Z,99859.53
2023-04-22T20:46:10.653Z,99871.50
2023-04-22T20:48:37.322Z,99868.00
2023-04-22T20:51:04.192Z,99862.22
2023-04-22T20:53:30.828Z,99862.28
2023-04-22T20:55:57.469Z,99859.53
2023-04-22T20:58:24.081Z,99861.13
2023-04-22T21:00:50.771Z,99861.63
2023-04-22T21:03:18.626Z,99857.00
2023-04-22T21:05:46.705Z,99865.28
2023-04-22T21:08:25.148Z,99859.72
2023-04-22T21:10:54.158Z,99856.72
2023-04-22T21:13:21.557Z,99858.13
2023-04-22T21:15:58.981Z,99865.13
2023-04-22T21:18:26.837Z,99858.19
2023-04-22T21:20:56.191Z,99868.81
2023-04-22T21:23:26.708Z,99868.25
2023-04-22T21:25:57.909Z,99873.47
2023-04-22T21:28:24.941Z,99871.16
2023-04-22T21:30:51.852Z,99867.91
2023-04-22T21:33:18.476Z,99868.88
2023-04-22T21:35:45.297Z,99871.94
2023-04-22T21:38:12.295Z,99873.84
2023-04-22T21:40:39.093Z,99869.69
2023-04-22T21:43:05.762Z,99873.44
2023-04-22T21:45:32.392Z,99870.84
2023-04-22T21:47:59.179Z,99867.78
2023-04-22T21:50:26.604Z,99872.22
2023-04-22T21:52:53.340Z,99866.31
2023-04-22T21:55:20.141Z,99871.19
2023-04-22T21:57:47.349Z,99874.00
2023-04-22T22:00:14.499Z,99875.41
2023-04-22T22:02:48.398Z,99880.25
2023-04-22T22:05:16.115Z,99877.69
2023-04-22T22:07:43.435Z,99876.75
2023-04-22T22:10:15.875Z,99877.03
2023-04-22T22:12:42.525Z,99873.09
2023-04-22T22:15:09.538Z,99875.88
2023-04-22T22:17:36.230Z,99884.78
2023-04-22T22:20:02.953Z,99881.44
2023-04-22T22:22:29.827Z,99882.00
2023-04-22T22:24:56.597Z,99891.97
2023-04-22T22:27:23.640Z,99885.16
2023-04-22T22:29:50.301Z,99887.66
2023-04-22T22:32:17.052Z,99892.28
2023-04-22T22:34:43.789Z,99894.09
2023-04-22T22:37:10.456Z,99889.75
2023-04-22T22:39:37.070Z,99890.63
2023-04-22T22:42:03.769Z,99887.59
2023-04-22T22:44:30.460Z,99893.63
2023-04-22T22:46:57.373Z,99891.28
2023-04-22T22:49:24.103Z,99888.25
2023-04-22T22:51:50.744Z,99885.47
2023-04-22T22:54:17.418Z,99893.41
2023-04-22T22:56:44.108Z,99890.53
2023-04-22T22:59:10.779Z,99890.06
2023-04-22T23:01:38.063Z,99889.16
2023-04-22T23:04:05.250Z,99890.06
2023-04-22T23:06:32.113Z,99886.28
2023-04-22T23:08:59.082Z,99890.75
2023-04-22T23:11:25.742Z,99892.06
2023-04-22T23:13:52.471Z,99901.53
2023-04-22T23:16:19.127Z,99893.31
2023-04-22T23:18:46.819Z,99890.84
2023-04-22T23:21:14.579Z,99889.94
2023-04-22T23:23:41.349Z,99892.56
2023-04-22T23:26:08.315Z,99897.50
2023-04-22T23:28:35.369Z,99899.34
2023-04-22T23:31:03.865Z,99899.56
2023-04-22T23:33:31.405Z,99898.09
2023-04-22T23:36:00.907Z,99896.38
2023-04-22T23:38:27.840Z,99896.53
2023-04-22T23:40:54.530Z,99898.06
2023-04-22T23:43:21.127Z,99893.59
2023-04-22T23:45:47.904Z,99888.19
2023-04-22T23:48:14.967Z,99886.59
2023-04-22T23:50:41.649Z,99889.19
2023-04-22T23:53:08.318Z,99886.19
2023-04-22T23:55:35.578Z,99893.72
2023-04-22T23:58:02.379Z,99884.78
